Time;durP1;ratioP1;P1;durP2;ratioP2;P2;SDS_P1;SDS_P2;PMS_P1;PMS_P2;Temp;Humidity;BMP_temperature;BMP_pressure;BME280_temperature;BME280_humidity;BME280_pressure;Samples;Min_cycle;Max_cycle;Signal;HPM_P1;HPM_P2
2022/06/27 00:00:11;;;;;;;9.13;7.03;;;;;;;;;;6263908;28;20130;-46
2022/06/27 00:03:32;;;;;;;9.15;6.60;;;;;;;;;;6264357;28;20118;-48
2022/06/27 00:06:33;;;;;;;10.00;6.70;;;;;;;;;;6246998;28;20451;-49
2022/06/27 00:09:33;;;;;;;9.53;6.83;;;;;;;;;;6265680;28;20087;-51
2022/06/27 00:12:36;;;;;;;10.50;6.80;;;;;;;;;;6265022;28;20461;-48
2022/06/27 00:15:37;;;;;;;9.73;6.65;;;;;;;;;;6264435;28;21072;-56
2022/06/27 00:18:37;;;;;;;9.77;7.17;;;;;;;;;;6264620;28;20041;-49
2022/06/27 00:21:38;;;;;;;9.90;6.80;;;;;;;;;;6246957;28;20045;-52
2022/06/27 00:24:39;;;;;;;9.33;6.70;;;;;;;;;;6266248;28;20045;-48
2022/06/27 00:27:39;;;;;;;14.77;6.70;;;;;;;;;;6264679;28;20037;-51
2022/06/27 00:30:40;;;;;;;10.03;6.57;;;;;;;;;;6265958;28;20087;-50
2022/06/27 00:33:41;;;;;;;9.63;7.27;;;;;;;;;;6264675;28;20048;-48
2022/06/27 00:36:41;;;;;;;9.93;6.53;;;;;;;;;;6263828;28;20630;-46
2022/06/27 00:39:42;;;;;;;10.07;7.10;;;;;;;;;;6265535;28;20064;-50
2022/06/27 00:42:42;;;;;;;9.27;6.93;;;;;;;;;;6264762;28;20086;-52
2022/06/27 00:45:43;;;;;;;8.30;6.73;;;;;;;;;;6264230;28;20543;-51
2022/06/27 00:48:44;;;;;;;11.50;6.63;;;;;;;;;;6265655;28;20052;-54
2022/06/27 00:51:44;;;;;;;8.80;6.60;;;;;;;;;;6260597;28;20053;-51
2022/06/27 00:54:47;;;;;;;9.93;6.70;;;;;;;;;;6259278;28;20045;-55
2022/06/27 00:57:47;;;;;;;8.88;6.85;;;;;;;;;;6255323;28;20071;-52
2022/06/27 01:00:48;;;;;;;9.63;7.13;;;;;;;;;;6259271;28;20312;-50
2022/06/27 01:03:49;;;;;;;10.80;7.10;;;;;;;;;;6260102;28;20734;-48
2022/06/27 01:06:51;;;;;;;12.03;7.57;;;;;;;;;;6256820;28;20392;-47
2022/06/27 01:09:53;;;;;;;11.90;7.70;;;;;;;;;;6259675;28;21476;-51
2022/06/27 01:12:55;;;;;;;11.48;7.22;;;;;;;;;;6258598;28;20056;-47
2022/06/27 01:15:56;;;;;;;10.70;7.43;;;;;;;;;;6257667;28;20080;-47
2022/06/27 01:18:57;;;;;;;10.27;7.22;;;;;;;;;;6257742;28;20102;-56
2022/06/27 01:21:57;;;;;;;10.10;7.33;;;;;;;;;;6259606;28;20052;-48
2022/06/27 01:24:58;;;;;;;11.33;6.63;;;;;;;;;;6259010;28;20048;-48
2022/06/27 01:27:59;;;;;;;12.83;6.90;;;;;;;;;;6260752;28;20049;-50
2022/06/27 01:31:00;;;;;;;8.73;6.90;;;;;;;;;;6258994;28;20063;-47
2022/06/27 01:34:01;;;;;;;12.20;6.90;;;;;;;;;;6261090;28;20056;-48
2022/06/27 01:37:03;;;;;;;11.23;7.20;;;;;;;;;;6258328;28;20543;-50
2022/06/27 01:40:05;;;;;;;10.98;7.60;;;;;;;;;;6260159;28;20095;-49
2022/06/27 01:43:06;;;;;;;11.77;7.60;;;;;;;;;;6258551;28;20045;-48
2022/06/27 01:46:06;;;;;;;12.97;7.83;;;;;;;;;;6256796;28;20521;-50
2022/06/27 01:49:07;;;;;;;11.23;7.90;;;;;;;;;;6259584;28;20447;-48
2022/06/27 01:52:11;;;;;;;11.57;7.70;;;;;;;;;;6259914;28;20065;-51
2022/06/27 01:55:11;;;;;;;11.25;7.90;;;;;;;;;;6261322;28;20070;-48
2022/06/27 01:58:13;;;;;;;10.00;6.83;;;;;;;;;;6258075;28;20045;-47
2022/06/27 02:01:13;;;;;;;13.32;8.20;;;;;;;;;;6259422;28;20060;-53
2022/06/27 02:04:15;;;;;;;11.50;8.00;;;;;;;;;;6258359;28;20045;-51
2022/06/27 02:07:16;;;;;;;11.48;7.68;;;;;;;;;;6258521;28;20053;-49
2022/06/27 02:10:17;;;;;;;15.48;7.63;;;;;;;;;;6257435;28;20076;-51
2022/06/27 02:13:17;;;;;;;11.50;7.70;;;;;;;;;;6258620;28;20059;-48
2022/06/27 02:16:19;;;;;;;13.27;8.10;;;;;;;;;;6257777;28;20052;-48
2022/06/27 02:19:20;;;;;;;10.50;7.15;;;;;;;;;;6255937;28;20420;-47
2022/06/27 02:22:21;;;;;;;10.65;7.25;;;;;;;;;;6258795;28;20080;-49
2022/06/27 02:25:21;;;;;;;9.10;7.83;;;;;;;;;;6258147;28;20384;-47
2022/06/27 02:28:27;;;;;;;11.20;7.67;;;;;;;;;;6257751;28;20051;-53
2022/06/27 02:31:27;;;;;;;10.88;7.65;;;;;;;;;;6257680;28;20435;-51
2022/06/27 02:34:28;;;;;;;13.37;8.00;;;;;;;;;;6256419;28;20053;-50
2022/06/27 02:37:30;;;;;;;11.30;7.70;;;;;;;;;;6260874;28;20060;-52
2022/06/27 02:40:31;;;;;;;10.15;7.57;;;;;;;;;;6262324;28;20052;-54
2022/06/27 02:43:33;;;;;;;11.67;8.00;;;;;;;;;;6250343;28;20141;-54
2022/06/27 02:46:34;;;;;;;10.68;8.30;;;;;;;;;;6258997;28;20072;-51
2022/06/27 02:49:35;;;;;;;11.03;8.27;;;;;;;;;;6264670;28;20049;-56
2022/06/27 02:52:40;;;;;;;12.47;8.13;;;;;;;;;;6258802;28;20060;-48
2022/06/27 02:55:43;;;;;;;12.30;7.97;;;;;;;;;;6255155;28;20520;-51
2022/06/27 02:59:08;;;;;;;11.50;8.27;;;;;;;;;;6257459;28;20056;-49
2022/06/27 03:02:10;;;;;;;11.27;8.05;;;;;;;;;;6255184;28;20045;-48
2022/06/27 03:05:11;;;;;;;12.45;8.30;;;;;;;;;;6258291;28;20480;-51
2022/06/27 03:08:12;;;;;;;14.35;8.57;;;;;;;;;;6261233;28;20081;-49
2022/06/27 03:11:15;;;;;;;13.63;8.73;;;;;;;;;;6258750;28;20160;-47
2022/06/27 03:14:16;;;;;;;15.13;8.88;;;;;;;;;;6269548;28;20057;-58
2022/06/27 03:17:16;;;;;;;13.13;8.40;;;;;;;;;;6268870;28;20045;-48
2022/06/27 03:20:17;;;;;;;11.83;8.93;;;;;;;;;;6267167;28;20077;-48
2022/06/27 03:23:18;;;;;;;12.97;8.00;;;;;;;;;;6255035;28;20056;-54
2022/06/27 03:26:18;;;;;;;11.47;8.47;;;;;;;;;;6268400;28;20123;-48
2022/06/27 03:29:19;;;;;;;13.77;8.47;;;;;;;;;;6259073;28;20199;-57
2022/06/27 03:32:20;;;;;;;9.90;7.80;;;;;;;;;;6254928;28;20136;-51
2022/06/27 03:35:20;;;;;;;12.47;8.30;;;;;;;;;;6267980;28;20053;-51
2022/06/27 03:38:21;;;;;;;12.97;8.87;;;;;;;;;;6255931;28;20136;-56
2022/06/27 03:41:22;;;;;;;12.63;8.60;;;;;;;;;;6267737;28;20080;-49
2022/06/27 03:44:22;;;;;;;12.57;8.90;;;;;;;;;;6268919;28;20051;-48
2022/06/27 03:47:23;;;;;;;12.30;8.33;;;;;;;;;;6267540;28;20463;-47
2022/06/27 03:50:24;;;;;;;14.30;8.80;;;;;;;;;;6266403;28;20136;-51
2022/06/27 03:53:25;;;;;;;14.73;9.15;;;;;;;;;;6266611;28;20048;-50
2022/06/27 03:56:26;;;;;;;15.00;9.60;;;;;;;;;;6268700;28;20099;-47
2022/06/27 03:59:26;;;;;;;12.30;9.10;;;;;;;;;;6257607;28;20056;-49
2022/06/27 04:02:27;;;;;;;13.60;8.47;;;;;;;;;;6267929;28;20135;-47
2022/06/27 04:05:28;;;;;;;13.52;8.77;;;;;;;;;;6264896;28;20049;-54
2022/06/27 04:08:29;;;;;;;15.77;8.57;;;;;;;;;;6259467;28;20056;-53
2022/06/27 04:11:29;;;;;;;13.73;8.73;;;;;;;;;;6259365;28;20138;-49
2022/06/27 04:14:30;;;;;;;13.00;8.67;;;;;;;;;;6261136;28;20049;-51
2022/06/27 04:17:31;;;;;;;12.40;8.93;;;;;;;;;;6263756;28;20057;-51
2022/06/27 04:20:32;;;;;;;11.48;9.13;;;;;;;;;;6263692;28;20416;-48
2022/06/27 04:23:33;;;;;;;13.93;8.83;;;;;;;;;;6259995;28;20052;-47
2022/06/27 04:26:33;;;;;;;13.37;8.50;;;;;;;;;;6242884;28;20607;-47
2022/06/27 04:29:34;;;;;;;15.23;9.03;;;;;;;;;;6265634;28;20036;-47
2022/06/27 04:32:34;;;;;;;16.13;9.50;;;;;;;;;;6265765;28;20056;-47
2022/06/27 04:35:36;;;;;;;13.43;9.10;;;;;;;;;;6252607;28;20045;-54
2022/06/27 04:38:38;;;;;;;15.23;9.82;;;;;;;;;;6265168;28;20045;-50
2022/06/27 04:41:38;;;;;;;13.85;8.80;;;;;;;;;;6264727;28;20303;-51
2022/06/27 04:44:40;;;;;;;13.93;9.20;;;;;;;;;;6262986;28;20128;-49
2022/06/27 04:47:42;;;;;;;12.95;9.20;;;;;;;;;;6243913;28;20051;-48
2022/06/27 04:50:42;;;;;;;12.43;8.88;;;;;;;;;;6251755;28;20128;-49
2022/06/27 04:53:44;;;;;;;13.20;9.50;;;;;;;;;;6262600;28;20519;-53
2022/06/27 04:56:46;;;;;;;14.88;9.25;;;;;;;;;;6262531;28;20048;-54
2022/06/27 04:59:48;;;;;;;;;;;;;;;;;;6260982;28;20216;-47
2022/06/27 05:02:49;;;;;;;16.65;9.18;;;;;;;;;;6252908;28;19920;-49
2022/06/27 05:05:50;;;;;;;17.70;9.97;;;;;;;;;;6263709;28;20512;-50
2022/06/27 05:08:50;;;;;;;18.50;10.20;;;;;;;;;;6259355;28;20135;-50
2022/06/27 05:11:53;;;;;;;14.20;10.07;;;;;;;;;;6258429;28;20571;-49
2022/06/27 05:14:54;;;;;;;18.45;9.70;;;;;;;;;;6257187;28;20045;-48
2022/06/27 05:17:56;;;;;;;17.13;9.80;;;;;;;;;;6254104;28;20475;-55
2022/06/27 05:20:56;;;;;;;15.20;9.87;;;;;;;;;;6258614;28;20049;-48
2022/06/27 05:23:57;;;;;;;16.73;10.10;;;;;;;;;;6259962;28;20099;-48
2022/06/27 05:26:58;;;;;;;17.67;10.00;;;;;;;;;;6258231;28;20045;-48
2022/06/27 05:29:58;;;;;;;20.27;10.50;;;;;;;;;;6259722;28;20092;-47
2022/06/27 05:32:59;;;;;;;15.07;10.07;;;;;;;;;;6258589;28;20049;-52
2022/06/27 05:36:00;;;;;;;18.93;10.10;;;;;;;;;;6257937;28;20053;-48
2022/06/27 05:39:01;;;;;;;13.38;9.57;;;;;;;;;;6262087;28;20131;-47
2022/06/27 05:42:04;;;;;;;15.75;9.90;;;;;;;;;;6257843;28;20056;-51
2022/06/27 05:45:05;;;;;;;13.45;10.30;;;;;;;;;;6266054;28;20555;-49
2022/06/27 05:48:06;;;;;;;18.55;9.85;;;;;;;;;;6261838;28;20049;-53
2022/06/27 05:51:07;;;;;;;;;;;;;;;;;;6258434;28;20047;-47
2022/06/27 05:54:09;;;;;;;20.13;9.80;;;;;;;;;;6260470;28;20299;-48
2022/06/27 05:57:11;;;;;;;;;;;;;;;;;;6257058;28;20480;-52
2022/06/27 06:00:12;;;;;;;;;;;;;;;;;;6261172;28;19941;-50
2022/06/27 06:03:12;;;;;;;16.83;9.70;;;;;;;;;;6256182;28;20009;-49
2022/06/27 06:06:13;;;;;;;21.53;9.53;;;;;;;;;;6254584;28;20094;-48
2022/06/27 06:09:13;;;;;;;15.93;9.23;;;;;;;;;;6255109;28;20634;-56
2022/06/27 06:12:14;;;;;;;29.02;10.13;;;;;;;;;;6256931;28;20049;-54
2022/06/27 06:15:15;;;;;;;14.00;9.50;;;;;;;;;;6257425;28;20095;-50
2022/06/27 06:18:17;;;;;;;15.63;10.38;;;;;;;;;;6251799;28;20053;-48
2022/06/27 06:21:17;;;;;;;13.48;9.27;;;;;;;;;;6257819;28;20052;-48
2022/06/27 06:24:18;;;;;;;14.20;9.65;;;;;;;;;;6254922;28;20160;-53
2022/06/27 06:27:20;;;;;;;10.57;9.43;;;;;;;;;;6257782;28;20048;-48
2022/06/27 06:30:22;;;;;;;15.77;9.45;;;;;;;;;;6262144;28;20144;-49
2022/06/27 06:33:23;;;;;;;;;;;;;;;;;;6260384;28;20499;-52
2022/06/27 06:36:24;;;;;;;22.50;10.30;;;;;;;;;;6258321;28;20311;-52
2022/06/27 06:39:25;;;;;;;19.33;9.95;;;;;;;;;;6263607;28;20133;-49
2022/06/27 06:42:26;;;;;;;20.57;9.70;;;;;;;;;;6262551;28;20463;-52
2022/06/27 06:45:27;;;;;;;14.50;10.00;;;;;;;;;;6257367;28;20131;-52
2022/06/27 06:48:28;;;;;;;16.00;9.57;;;;;;;;;;6260636;28;20068;-49
2022/06/27 06:51:31;;;;;;;14.13;9.57;;;;;;;;;;6257686;28;20049;-49
2022/06/27 06:54:32;;;;;;;14.02;10.13;;;;;;;;;;6260713;28;20057;-48
2022/06/27 06:57:33;;;;;;;15.20;10.27;;;;;;;;;;6260985;28;20588;-49
2022/06/27 07:00:33;;;;;;;12.80;9.73;;;;;;;;;;6258448;28;20044;-51
2022/06/27 07:03:34;;;;;;;14.40;10.50;;;;;;;;;;6260854;28;20135;-49
2022/06/27 07:06:36;;;;;;;17.48;10.23;;;;;;;;;;6259744;28;20071;-53
2022/06/27 07:09:36;;;;;;;16.60;10.25;;;;;;;;;;6260343;28;22343;-57
2022/06/27 07:12:39;;;;;;;12.60;9.50;;;;;;;;;;6261644;28;20033;-53
2022/06/27 07:15:39;;;;;;;16.48;10.13;;;;;;;;;;6258984;28;20094;-48
2022/06/27 07:18:40;;;;;;;15.37;9.60;;;;;;;;;;6261167;28;20483;-50
2022/06/27 07:21:41;;;;;;;14.00;10.53;;;;;;;;;;6260976;28;20598;-48
2022/06/27 07:24:42;;;;;;;14.80;10.25;;;;;;;;;;6259588;28;20107;-47
2022/06/27 07:27:43;;;;;;;12.57;9.60;;;;;;;;;;6258992;28;20511;-49
2022/06/27 07:30:47;;;;;;;16.30;11.38;;;;;;;;;;6261579;28;20057;-54
2022/06/27 07:33:51;;;;;;;15.07;10.82;;;;;;;;;;6257224;28;20120;-49
2022/06/27 07:36:52;;;;;;;16.55;10.15;;;;;;;;;;6258570;28;20084;-57
2022/06/27 07:39:53;;;;;;;13.43;9.83;;;;;;;;;;6260228;28;20044;-58
2022/06/27 07:42:54;;;;;;;16.95;9.82;;;;;;;;;;6262271;28;20118;-50
2022/06/27 07:45:56;;;;;;;15.13;9.97;;;;;;;;;;6259340;28;20057;-50
2022/06/27 07:48:57;;;;;;;11.63;9.23;;;;;;;;;;6258759;28;20049;-51
2022/06/27 07:51:58;;;;;;;11.43;9.90;;;;;;;;;;6259597;28;20080;-48
2022/06/27 07:54:59;;;;;;;14.30;9.50;;;;;;;;;;6261020;28;20360;-52
2022/06/27 07:58:00;;;;;;;16.35;9.73;;;;;;;;;;6259237;28;20059;-57
2022/06/27 08:01:03;;;;;;;14.23;9.77;;;;;;;;;;6259679;28;20041;-53
2022/06/27 08:04:04;;;;;;;14.60;9.80;;;;;;;;;;6263791;28;20060;-49
2022/06/27 08:07:06;;;;;;;12.88;9.40;;;;;;;;;;6259059;28;20491;-50
2022/06/27 08:10:07;;;;;;;15.38;9.73;;;;;;;;;;6259564;28;20037;-51
2022/06/27 08:13:08;;;;;;;13.00;9.98;;;;;;;;;;6262936;28;20458;-48
2022/06/27 08:16:09;;;;;;;12.73;9.17;;;;;;;;;;6261269;28;20045;-53
2022/06/27 08:19:11;;;;;;;14.88;9.98;;;;;;;;;;6260407;28;20079;-52
2022/06/27 08:22:12;;;;;;;14.55;9.80;;;;;;;;;;6257844;28;20049;-47
2022/06/27 08:25:13;;;;;;;13.73;9.13;;;;;;;;;;6260144;28;20130;-52
2022/06/27 08:28:16;;;;;;;12.90;9.57;;;;;;;;;;6259908;28;20102;-50
2022/06/27 08:31:17;;;;;;;13.32;8.20;;;;;;;;;;6259265;28;20049;-52
2022/06/27 08:34:20;;;;;;;16.17;9.70;;;;;;;;;;6255922;28;20463;-55
2022/06/27 08:37:23;;;;;;;12.27;9.18;;;;;;;;;;6259630;28;20691;-51
2022/06/27 08:40:25;;;;;;;12.68;8.98;;;;;;;;;;6257225;28;20045;-54
2022/06/27 08:43:26;;;;;;;13.32;8.68;;;;;;;;;;6260210;28;20448;-49
2022/06/27 08:46:29;;;;;;;12.88;8.43;;;;;;;;;;6258071;28;20060;-50
2022/06/27 08:49:31;;;;;;;9.18;8.18;;;;;;;;;;6256776;28;20081;-51
2022/06/27 08:52:34;;;;;;;9.95;7.93;;;;;;;;;;6261654;28;20044;-52
2022/06/27 08:55:34;;;;;;;12.77;8.20;;;;;;;;;;6255361;28;20080;-53
2022/06/27 08:58:35;;;;;;;8.20;7.40;;;;;;;;;;6263484;28;20053;-48
2022/06/27 09:01:37;;;;;;;11.32;7.47;;;;;;;;;;6261909;28;20144;-51
2022/06/27 09:04:58;;;;;;;9.63;7.65;;;;;;;;;;6261898;28;20055;-56
2022/06/27 09:08:04;;;;;;;11.57;8.43;;;;;;;;;;6263542;28;20171;-56
2022/06/27 09:11:05;;;;;;;12.07;8.07;;;;;;;;;;6264296;28;20099;-55
2022/06/27 09:14:26;;;;;;;9.82;8.13;;;;;;;;;;6265641;28;20041;-54
2022/06/27 09:17:27;;;;;;;10.50;7.40;;;;;;;;;;6265137;28;20052;-51
2022/06/27 09:20:49;;;;;;;9.15;7.28;;;;;;;;;;6257681;28;20132;-47
2022/06/27 09:23:58;;;;;;;10.02;7.20;;;;;;;;;;6261917;28;20173;-58
2022/06/27 09:27:00;;;;;;;10.43;8.15;;;;;;;;;;6264408;28;20045;-54
2022/06/27 09:30:01;;;;;;;12.18;8.52;;;;;;;;;;6262925;28;20037;-48
2022/06/27 09:33:04;;;;;;;11.80;8.55;;;;;;;;;;6260306;28;20045;-55
2022/06/27 09:36:13;;;;;;;12.18;8.13;;;;;;;;;;6261092;28;20067;-55
2022/06/27 09:39:21;;;;;;;12.32;8.15;;;;;;;;;;6261218;28;20072;-58
2022/06/27 09:42:22;;;;;;;9.07;8.18;;;;;;;;;;6261886;28;20492;-52
2022/06/27 09:45:24;;;;;;;;;;;;;;;;;;6261730;28;20049;-55
2022/06/27 09:48:26;;;;;;;11.23;7.68;;;;;;;;;;6263697;28;19920;-52
2022/06/27 09:51:27;;;;;;;8.88;7.95;;;;;;;;;;6236579;28;20656;-48
2022/06/27 09:54:29;;;;;;;11.52;8.20;;;;;;;;;;6242960;28;20052;-51
2022/06/27 09:57:30;;;;;;;8.68;7.38;;;;;;;;;;6241752;28;20635;-51
2022/06/27 10:00:32;;;;;;;9.02;7.15;;;;;;;;;;6241823;28;20098;-45
2022/06/27 10:03:33;;;;;;;8.60;7.20;;;;;;;;;;6238478;28;20057;-48
2022/06/27 10:06:35;;;;;;;;;;;;;;;;;;6241020;28;20041;-47
2022/06/27 10:09:37;;;;;;;7.95;7.15;;;;;;;;;;6240417;28;19936;-48
2022/06/27 10:12:38;;;;;;;9.00;7.10;;;;;;;;;;6242303;28;20134;-45
2022/06/27 10:15:39;;;;;;;10.05;7.28;;;;;;;;;;6241282;28;20570;-47
2022/06/27 10:18:52;;;;;;;10.35;7.18;;;;;;;;;;6243896;28;20136;-49
2022/06/27 10:21:54;;;;;;;8.55;6.43;;;;;;;;;;6243379;28;20526;-53
2022/06/27 10:24:55;;;;;;;7.90;6.53;;;;;;;;;;6240122;28;20539;-47
2022/06/27 10:28:13;;;;;;;7.45;6.35;;;;;;;;;;6239675;28;20049;-47
2022/06/27 10:31:17;;;;;;;7.90;6.93;;;;;;;;;;6235875;28;20377;-50
2022/06/27 10:34:18;;;;;;;11.10;9.05;;;;;;;;;;6235471;28;20891;-48
2022/06/27 10:37:21;;;;;;;8.85;7.45;;;;;;;;;;6235600;28;20538;-53
2022/06/27 10:40:23;;;;;;;10.27;7.40;;;;;;;;;;6237744;28;20163;-48
2022/06/27 10:43:36;;;;;;;10.25;7.30;;;;;;;;;;6242868;28;20053;-54
2022/06/27 10:46:36;;;;;;;11.68;8.10;;;;;;;;;;6239426;28;20140;-48
2022/06/27 10:49:37;;;;;;;9.47;7.50;;;;;;;;;;6237123;28;20049;-47
2022/06/27 10:52:38;;;;;;;10.15;7.30;;;;;;;;;;6236687;28;20136;-47
2022/06/27 10:55:40;;;;;;;10.38;7.75;;;;;;;;;;6217377;28;20064;-47
2022/06/27 10:58:44;;;;;;;9.57;7.88;;;;;;;;;;6234520;28;20152;-52
2022/06/27 11:01:57;;;;;;;14.43;7.97;;;;;;;;;;6230849;28;20166;-53
2022/06/27 11:04:57;;;;;;;8.27;7.40;;;;;;;;;;6234439;28;20061;-51
2022/06/27 11:07:59;;;;;;;;;;;;;;;;;;6237415;28;20059;-53
2022/06/27 11:11:01;;;;;;;11.18;8.13;;;;;;;;;;6238150;28;20011;-52
2022/06/27 11:14:02;;;;;;;8.90;7.90;;;;;;;;;;6242270;28;20065;-59
2022/06/27 11:17:03;;;;;;;9.70;8.02;;;;;;;;;;6239227;28;20080;-48
2022/06/27 11:20:26;;;;;;;10.32;8.00;;;;;;;;;;6235073;28;20072;-52
2022/06/27 11:23:27;;;;;;;9.80;7.70;;;;;;;;;;6233747;28;20049;-56
2022/06/27 11:26:32;;;;;;;;;;;;;;;;;;6241712;28;20394;-48
2022/06/27 11:32:51;;;;;;;10.63;8.27;;;;;;;;;;6244159;28;20442;-46
2022/06/27 11:35:53;;;;;;;;;;;;;;;;;;6243728;28;20087;-49
2022/06/27 11:38:55;;;;;;;11.98;8.18;;;;;;;;;;6244905;28;19927;-56
2022/06/27 11:41:58;;;;;;;9.07;7.82;;;;;;;;;;6239665;28;20192;-59
2022/06/27 11:45:08;;;;;;;10.00;8.38;;;;;;;;;;6245946;28;20061;-52
2022/06/27 11:48:14;;;;;;;9.70;8.70;;;;;;;;;;6244962;28;20053;-47
2022/06/27 11:51:26;;;;;;;11.18;8.20;;;;;;;;;;6222790;28;20052;-51
2022/06/27 11:54:42;;;;;;;9.40;8.50;;;;;;;;;;6244082;28;20050;-47
2022/06/27 11:57:55;;;;;;;11.48;8.38;;;;;;;;;;6244441;28;20925;-49
2022/06/27 12:01:08;;;;;;;11.88;8.48;;;;;;;;;;6243769;28;20056;-47
2022/06/27 12:04:15;;;;;;;9.95;8.23;;;;;;;;;;6244394;28;20045;-58
2022/06/27 12:07:16;;;;;;;10.65;8.05;;;;;;;;;;6245454;28;20077;-47
2022/06/27 12:10:16;;;;;;;;;;;;;;;;;;6243625;28;20564;-53
2022/06/27 12:13:17;;;;;;;10.40;8.80;;;;;;;;;;6244989;28;20605;-47
2022/06/27 12:16:18;;;;;;;;;;;;;;;;;;6240837;28;20055;-46
2022/06/27 12:19:19;;;;;;;11.83;8.37;;;;;;;;;;6237834;28;20391;-47
2022/06/27 12:22:19;;;;;;;;;;;;;;;;;;6239485;28;20101;-48
2022/06/27 12:25:20;;;;;;;11.63;8.57;;;;;;;;;;6235112;28;19924;-51
2022/06/27 12:28:20;;;;;;;;;;;;;;;;;;6240156;28;20100;-52
2022/06/27 12:31:21;;;;;;;9.73;8.47;;;;;;;;;;6239107;28;19925;-50
2022/06/27 12:34:22;;;;;;;8.85;7.60;;;;;;;;;;6240211;28;20059;-48
2022/06/27 12:37:22;;;;;;;;;;;;;;;;;;6240902;28;20495;-47
2022/06/27 12:40:23;;;;;;;9.50;8.60;;;;;;;;;;6234063;28;19933;-47
2022/06/27 12:43:23;;;;;;;;;;;;;;;;;;6234804;28;20041;-51
2022/06/27 12:46:25;;;;;;;11.23;8.60;;;;;;;;;;6237355;28;19920;-47
2022/06/27 12:49:25;;;;;;;9.82;8.52;;;;;;;;;;6236251;28;20176;-47
2022/06/27 12:52:26;;;;;;;11.73;8.10;;;;;;;;;;6238290;28;20045;-48
2022/06/27 12:55:26;;;;;;;11.65;8.32;;;;;;;;;;6238501;28;20056;-47
2022/06/27 12:58:28;;;;;;;9.23;8.30;;;;;;;;;;6239730;28;20049;-47
2022/06/27 13:01:29;;;;;;;11.25;8.73;;;;;;;;;;6233370;28;20069;-47
2022/06/27 13:04:30;;;;;;;10.50;8.23;;;;;;;;;;6239189;28;20539;-47
2022/06/27 13:07:30;;;;;;;13.20;8.32;;;;;;;;;;6235345;28;20052;-48
2022/06/27 13:10:31;;;;;;;9.38;8.38;;;;;;;;;;6236613;28;20049;-54
2022/06/27 13:13:32;;;;;;;10.95;8.20;;;;;;;;;;6226770;28;20048;-49
2022/06/27 13:16:32;;;;;;;11.80;8.07;;;;;;;;;;6237921;28;20499;-56
2022/06/27 13:19:33;;;;;;;11.43;8.18;;;;;;;;;;6235749;28;20500;-46
2022/06/27 13:22:33;;;;;;;12.07;7.45;;;;;;;;;;6237896;28;20049;-51
2022/06/27 13:25:34;;;;;;;8.82;7.93;;;;;;;;;;6239206;28;20055;-57
2022/06/27 13:28:35;;;;;;;9.65;8.15;;;;;;;;;;6241322;28;20057;-53
2022/06/27 13:31:36;;;;;;;12.32;8.02;;;;;;;;;;6233065;28;20061;-54
2022/06/27 13:34:36;;;;;;;10.98;7.90;;;;;;;;;;6236204;28;20446;-48
2022/06/27 13:37:37;;;;;;;9.70;7.80;;;;;;;;;;6234749;28;20836;-48
2022/06/27 13:40:38;;;;;;;9.00;8.10;;;;;;;;;;6235508;28;20657;-47
2022/06/27 13:43:38;;;;;;;10.43;8.38;;;;;;;;;;6235526;28;20647;-47
2022/06/27 13:46:39;;;;;;;9.25;7.93;;;;;;;;;;6236172;28;20051;-48
2022/06/27 13:49:42;;;;;;;10.77;8.25;;;;;;;;;;6232657;28;20974;-52
2022/06/27 13:52:43;;;;;;;8.50;7.70;;;;;;;;;;6236700;28;20049;-47
2022/06/27 13:55:44;;;;;;;10.40;8.27;;;;;;;;;;6238789;28;20059;-49
2022/06/27 13:58:44;;;;;;;9.40;7.60;;;;;;;;;;6238195;28;20083;-58
2022/06/27 14:01:46;;;;;;;8.10;7.30;;;;;;;;;;6236579;28;20053;-47
2022/06/27 14:04:47;;;;;;;8.45;7.63;;;;;;;;;;6237204;28;20741;-47
2022/06/27 14:07:48;;;;;;;12.18;7.88;;;;;;;;;;6239435;28;20049;-50
2022/06/27 14:10:57;;;;;;;8.75;7.47;;;;;;;;;;6235098;28;20103;-50
2022/06/27 14:13:58;;;;;;;8.00;6.93;;;;;;;;;;6234187;28;20143;-48
2022/06/27 14:16:58;;;;;;;7.95;7.15;;;;;;;;;;6234807;28;20060;-49
2022/06/27 14:19:59;;;;;;;8.68;7.65;;;;;;;;;;6236995;28;20700;-48
2022/06/27 14:22:59;;;;;;;10.75;7.85;;;;;;;;;;6241655;28;20053;-48
2022/06/27 14:26:00;;;;;;;10.48;7.82;;;;;;;;;;6241454;28;20045;-51
2022/06/27 14:29:01;;;;;;;8.55;7.60;;;;;;;;;;6243745;28;20169;-50
2022/06/27 14:32:03;;;;;;;11.07;7.55;;;;;;;;;;6239308;28;20057;-49
2022/06/27 14:35:04;;;;;;;8.75;7.20;;;;;;;;;;6243638;28;20056;-50
2022/06/27 14:38:04;;;;;;;9.93;7.32;;;;;;;;;;6239912;28;20140;-48
2022/06/27 14:41:06;;;;;;;9.25;6.85;;;;;;;;;;6242052;28;21601;-55
2022/06/27 14:44:09;;;;;;;12.13;7.47;;;;;;;;;;6235731;28;20084;-51
2022/06/27 14:47:10;;;;;;;9.95;7.35;;;;;;;;;;6239682;28;20044;-50
2022/06/27 14:50:10;;;;;;;9.07;7.25;;;;;;;;;;6242519;28;20056;-49
2022/06/27 14:53:11;;;;;;;8.27;7.45;;;;;;;;;;6245343;28;20060;-48
2022/06/27 14:56:12;;;;;;;9.82;7.28;;;;;;;;;;6247267;28;20064;-50
2022/06/27 14:59:12;;;;;;;9.02;7.28;;;;;;;;;;6241903;28;20053;-48
2022/06/27 15:02:13;;;;;;;10.13;8.20;;;;;;;;;;6245662;28;20049;-48
2022/06/27 15:05:13;;;;;;;11.07;7.93;;;;;;;;;;6246999;28;20060;-49
2022/06/27 15:08:17;;;;;;;7.90;7.07;;;;;;;;;;6246938;28;20041;-48
2022/06/27 15:14:36;;;;;;;11.57;7.18;;;;;;;;;;6246726;28;20049;-49
2022/06/27 15:17:37;;;;;;;8.50;7.60;;;;;;;;;;6248140;28;20136;-47
2022/06/27 15:20:38;;;;;;;8.63;7.07;;;;;;;;;;6244798;28;20110;-48
2022/06/27 15:23:38;;;;;;;10.15;7.25;;;;;;;;;;6243210;28;20146;-49
2022/06/27 15:26:40;;;;;;;10.25;8.23;;;;;;;;;;6245831;28;20566;-47
2022/06/27 15:29:41;;;;;;;19.20;8.18;;;;;;;;;;6242387;28;20062;-47
2022/06/27 15:32:42;;;;;;;9.75;7.68;;;;;;;;;;6242461;28;20814;-47
2022/06/27 15:35:44;;;;;;;10.25;6.90;;;;;;;;;;6243794;28;20053;-49
2022/06/27 15:38:44;;;;;;;9.65;7.32;;;;;;;;;;6247174;28;20651;-48
2022/06/27 15:41:45;;;;;;;8.43;6.95;;;;;;;;;;6239509;28;20057;-51
2022/06/27 15:44:47;;;;;;;9.07;7.15;;;;;;;;;;6249989;28;20084;-49
2022/06/27 15:47:48;;;;;;;9.85;7.25;;;;;;;;;;6242975;28;20103;-48
2022/06/27 15:50:48;;;;;;;8.95;7.72;;;;;;;;;;6245114;28;20060;-48
2022/06/27 15:53:49;;;;;;;8.73;7.28;;;;;;;;;;6246788;28;20065;-47
2022/06/27 15:56:50;;;;;;;8.65;7.10;;;;;;;;;;6246991;28;20091;-47
2022/06/27 15:59:50;;;;;;;9.75;7.25;;;;;;;;;;6242148;28;20988;-49
2022/06/27 16:02:51;;;;;;;8.50;7.28;;;;;;;;;;6245673;28;20045;-48
2022/06/27 16:05:53;;;;;;;9.65;7.45;;;;;;;;;;6244237;28;20099;-48
2022/06/27 16:08:54;;;;;;;11.10;7.22;;;;;;;;;;6243502;28;20488;-48
2022/06/27 16:11:56;;;;;;;10.38;7.90;;;;;;;;;;6242902;28;20421;-48
2022/06/27 16:14:57;;;;;;;7.72;6.93;;;;;;;;;;6243188;28;20132;-51
2022/06/27 16:17:57;;;;;;;8.27;7.30;;;;;;;;;;6244145;28;20118;-47
2022/06/27 16:21:00;;;;;;;10.02;7.22;;;;;;;;;;6244559;28;20055;-49
2022/06/27 16:24:02;;;;;;;9.35;7.05;;;;;;;;;;6245425;28;20099;-53
2022/06/27 16:27:03;;;;;;;10.88;7.70;;;;;;;;;;6242377;28;20064;-48
2022/06/27 16:30:04;;;;;;;9.75;8.35;;;;;;;;;;6243880;28;20457;-48
2022/06/27 16:33:04;;;;;;;10.52;8.50;;;;;;;;;;6244618;28;20077;-48
2022/06/27 16:36:05;;;;;;;11.85;8.20;;;;;;;;;;6243398;28;20712;-49
2022/06/27 16:39:09;;;;;;;11.52;8.50;;;;;;;;;;6243512;28;20052;-48
2022/06/27 16:45:29;;;;;;;11.07;8.73;;;;;;;;;;6244110;28;20057;-49
2022/06/27 16:48:30;;;;;;;12.55;8.27;;;;;;;;;;6244452;28;20147;-47
2022/06/27 16:51:31;;;;;;;11.15;8.85;;;;;;;;;;6243143;28;20045;-47
2022/06/27 16:54:32;;;;;;;9.60;8.60;;;;;;;;;;6245522;28;20049;-49
2022/06/27 16:57:33;;;;;;;10.23;9.00;;;;;;;;;;6241382;28;20052;-47
2022/06/27 17:00:37;;;;;;;10.80;9.13;;;;;;;;;;6240708;28;20488;-51
2022/06/27 17:03:38;;;;;;;8.93;8.02;;;;;;;;;;6243004;28;20504;-53
2022/06/27 17:06:38;;;;;;;10.27;8.55;;;;;;;;;;6241375;28;20053;-48
2022/06/27 17:09:39;;;;;;;9.57;8.40;;;;;;;;;;6239189;28;21145;-55
2022/06/27 17:12:39;;;;;;;9.40;8.40;;;;;;;;;;6239329;28;20061;-48
2022/06/27 17:15:42;;;;;;;11.35;9.40;;;;;;;;;;6245003;28;20115;-51
2022/06/27 17:18:43;;;;;;;11.63;8.80;;;;;;;;;;6244206;28;20110;-50
2022/06/27 17:21:44;;;;;;;11.82;8.68;;;;;;;;;;6241154;28;20065;-46
2022/06/27 17:24:45;;;;;;;10.02;8.20;;;;;;;;;;6245812;28;20064;-48
2022/06/27 17:27:46;;;;;;;10.05;8.55;;;;;;;;;;6246643;28;20789;-49
2022/06/27 17:30:46;;;;;;;11.68;8.50;;;;;;;;;;6240555;28;20047;-47
2022/06/27 17:33:47;;;;;;;10.07;8.40;;;;;;;;;;6244253;28;20061;-48
2022/06/27 17:36:47;;;;;;;13.10;9.02;;;;;;;;;;6238023;28;20057;-47
2022/06/27 17:39:48;;;;;;;12.32;9.13;;;;;;;;;;6240757;28;20518;-47
2022/06/27 17:42:50;;;;;;;12.13;8.60;;;;;;;;;;6242097;28;20047;-48
2022/06/27 17:45:50;;;;;;;11.35;8.77;;;;;;;;;;6241294;28;20087;-49
2022/06/27 17:48:51;;;;;;;15.13;9.57;;;;;;;;;;6243906;28;20037;-48
2022/06/27 17:51:52;;;;;;;10.80;9.30;;;;;;;;;;6242573;28;20049;-48
2022/06/27 17:54:52;;;;;;;14.18;9.70;;;;;;;;;;6243945;28;20352;-49
2022/06/27 17:57:53;;;;;;;14.40;9.07;;;;;;;;;;6246820;28;20060;-46
2022/06/27 18:00:53;;;;;;;10.05;8.25;;;;;;;;;;6242516;28;20493;-46
2022/06/27 18:03:54;;;;;;;12.10;8.45;;;;;;;;;;6245256;28;20460;-48
2022/06/27 18:06:55;;;;;;;11.30;8.95;;;;;;;;;;6244031;28;20491;-49
2022/06/27 18:09:56;;;;;;;13.30;9.07;;;;;;;;;;6242955;28;20095;-48
2022/06/27 18:12:56;;;;;;;12.57;8.43;;;;;;;;;;6241493;28;20504;-68